NCAR-RAP Real-Time Weather Data

Output produced by METARs form (19 June 2019  11:03 UTC)
found at http://weather.rap.ucar.edu/surface/
 
RJBB 191030Z 22013KT 9999 FEW040 BKN/// 23/19 Q1004 NOSIG
 
RJBD 191000Z 19005KT 150V220 9999 FEW025 SCT050 22/20 Q1005
 
RJBE 191000Z 22012KT 8000 NSC 22/20 Q1004
 
RJBT 190900Z 02004KT 340V050 9999 VCSH FEW020 SCT045 23/23 Q1005
 
RJOA 191000Z VRB02KT 9999 FEW030 BKN/// 23/13 Q1006
 
RJOB 191000Z 13003KT 9999 FEW025 SCT150 BKN/// 23/18 Q1005
 
RJOC 191000Z 36008KT 9999 FEW015 SCT/// 23/18 Q1005
 
RJOH 191000Z 36005KT 9999 FEW020 SCT060 22/17 Q1005
 
RJOI 191055Z 00000KT 9999 FEW030 SCT140 BKN250 23/19 A2967 RMK SLP047 T02330189
 
RJOK 191000Z 16003KT 9999 FEW025 BKN/// 23/19 Q1005
 
RJOM 191000Z 22003KT 180V250 9999 FEW030 BKN/// 23/16 Q1005
 
RJOO 191000Z 21008KT 160V250 9999 FEW040 BKN/// 24/18 Q1004 RMK 1CU040 A2966
 
RJOR 191000Z 02003KT 9999 FEW060 BKN/// 22/18 Q1005
 
RJOT 191000Z 06003KT 020V090 9999 FEW030 BKN/// 23/18 Q1005
 
RJOW 191000Z 35003KT 310V020 CAVOK 22/19 Q1005
 
RJOY 191000Z 27008KT 9999 FEW030 BKN/// 26/17 Q1004
 
RJDC 191000Z 06009KT CAVOK 22/20 Q1004
 
RJDT 191000Z 36003KT 330V030 CAVOK 23/17 Q1005
 
RJFE 191000Z 34007KT 9999 FEW015 BKN/// 22/18 Q1005
 
RJFF 191030Z VRB06KT 9999 FEW040 BKN/// 24/19 Q1004 BECMG 18005KT
 
RJFG 190925Z 07006KT 020V110 4000 -SHRA PRFG BR FEW001 SCT003 BKN007 20/20 Q1004 RMK 1ST001 3ST003 5ST007 A2965 2000SE FG SE
 
RJFK 191000Z 10006KT 9999 FEW020 SCT070 BKN/// 22/18 Q1005
 
RJFO 191000Z VRB01KT 9999 FEW040 SCT/// 23/20 Q1004
 
RJFR 191000Z 02003KT CAVOK 23/18 Q1004
 
RJFS 191000Z 28008KT 9999 FEW040 SCT045 BKN/// 26/20 Q1003
 
RJFT 191000Z 21004KT 9999 FEW045 SCT060 BKN/// 25/19 Q1004
 
RJFU 191000Z 31006KT 9999 FEW050 BKN070 BKN/// 26/20 Q1003
 
RJFM 191000Z 02008KT 9999 FEW020 SCT050 BKN080 23/20 Q1004